Lakes of Four Seasons, Indiana
Current Conditions -  °F | °C
As of 4:55 PM on Tuesday 21 Oct 2014 (Local Time) from KIGQ Reporting Station
Overcast Overcast  
Wind Chill: 10°   Ceiling: 2900
Heat Index: 10°   Visibility: 10mi
Dew Point:   Wind: 9mph
Humidity: 68%   Direction: 10°N
Pressure: 30.19"   Gusts: NA
Location:  41.4039°N, 87.3294°W
Report Text: KIGQ 212155Z AUTO 01008KT 10SM OVC029 10/04 A3019 RMK AO2 T01000043
Loading
Personal Weather Stations






























Interactive Weather Map
Tropical Storm Tracking
New forecast layout! Learn more

10-Day Weather Forecast

Advertisements
Track Severe Weather on mobile